Archival Weather

Ahwaz

Ahwaz, Iran (OIAW)

Report from: Sunday, October 1, 2023 12:30 AM +0330
Current time: Friday, July 19, 2024 5:40 AM +0330

Current weather – Weather history – Daily summaries
Weather forecast

Temperature30.0°C (86.0°F)
Heat index28.5°C (83.3°F)
Dew point8.0°C (46.4°F)
Winds 8 kts (4.1 m/s, 9.2 mph) West-Northwest (290°)
Clouds Sky clear
Altimeter29.74 in.Hg (1007 mB)
Relative humidity25 %
Density altitude2,085 ft. (635 m)
Remarks Ceiling and visibility OK
Flight conditions Visual Meteorological Conditions
Raw dataOIAW 302100Z 29008KT CAVOK 30/08 Q1007
An error has occurred. This application may no longer respond until reloaded. Reload 🗙